createdAt,value
2023-03-12T00:01:21.463Z,12.93
2023-03-12T00:03:49.107Z,12.40
2023-03-12T00:06:17.956Z,12.68
2023-03-12T00:08:45.057Z,12.60
2023-03-12T00:11:16.107Z,12.15
2023-03-12T00:13:43.650Z,12.82
2023-03-12T00:16:15.388Z,12.30
2023-03-12T00:18:43.845Z,11.60
2023-03-12T00:21:10.864Z,12.65
2023-03-12T00:23:37.776Z,13.10
2023-03-12T00:26:07.646Z,12.50
2023-03-12T00:28:35.450Z,13.10
2023-03-12T00:31:04.327Z,13.40
2023-03-12T00:33:31.665Z,13.65
2023-03-12T00:36:01.093Z,13.30
2023-03-12T00:38:27.934Z,12.68
2023-03-12T00:40:54.860Z,13.07
2023-03-12T00:43:21.673Z,13.07
2023-03-12T00:45:48.728Z,13.20
2023-03-12T00:48:15.676Z,13.00
2023-03-12T00:50:42.521Z,13.18
2023-03-12T00:53:09.672Z,12.88
2023-03-12T00:55:36.771Z,13.43
2023-03-12T00:58:03.709Z,12.70
2023-03-12T01:00:30.690Z,12.40
2023-03-12T01:02:57.507Z,13.05
2023-03-12T01:05:24.532Z,13.38
2023-03-12T01:07:51.410Z,13.75
2023-03-12T01:10:20.665Z,13.15
2023-03-12T01:12:48.078Z,12.93
2023-03-12T01:15:17.593Z,12.95
2023-03-12T01:17:44.581Z,13.52
2023-03-12T01:20:11.880Z,12.80
2023-03-12T01:22:40.003Z,13.38
2023-03-12T01:25:07.555Z,13.18
2023-03-12T01:27:34.421Z,12.82
2023-03-12T01:30:01.301Z,12.77
2023-03-12T01:32:28.331Z,12.88
2023-03-12T01:34:55.528Z,12.90
2023-03-12T01:37:22.369Z,12.93
2023-03-12T01:39:49.153Z,13.32
2023-03-12T01:42:16.192Z,13.48
2023-03-12T01:45:27.733Z,12.98
2023-03-12T01:47:54.676Z,13.70
2023-03-12T01:50:21.849Z,13.55
2023-03-12T01:52:49.072Z,13.40
2023-03-12T01:55:17.267Z,13.60
2023-03-12T01:57:53.508Z,13.15
2023-03-12T02:00:26.547Z,13.85
2023-03-12T02:03:00.064Z,13.95
2023-03-12T02:05:43.777Z,12.98
2023-03-12T02:08:11.919Z,13.05
2023-03-12T02:10:39.427Z,13.02
2023-03-12T02:13:06.983Z,13.45
2023-03-12T02:15:36.158Z,13.27
2023-03-12T02:18:04.505Z,13.30
2023-03-12T02:20:57.754Z,14.10
2023-03-12T02:23:37.800Z,13.70
2023-03-12T02:26:07.422Z,13.50
2023-03-12T02:28:42.917Z,16.50
2023-03-12T02:31:14.638Z,15.10
2023-03-12T02:33:42.039Z,13.40
2023-03-12T02:36:09.543Z,14.07
2023-03-12T02:38:48.205Z,14.13
2023-03-12T02:41:22.928Z,13.70
2023-03-12T02:44:12.995Z,14.00
2023-03-12T02:46:43.809Z,13.88
2023-03-12T02:49:12.790Z,13.18
2023-03-12T02:51:41.626Z,13.85
2023-03-12T02:54:09.774Z,13.77
2023-03-12T02:56:40.775Z,13.45
2023-03-12T02:59:08.988Z,14.23
2023-03-12T03:01:39.568Z,14.00
2023-03-12T03:04:08.972Z,13.50
2023-03-12T03:06:39.569Z,13.43
2023-03-12T03:09:06.445Z,13.95
2023-03-12T03:11:35.962Z,13.63
2023-03-12T03:14:07.013Z,14.30
2023-03-12T03:16:35.444Z,13.80
2023-03-12T03:19:02.446Z,14.38
2023-03-12T03:21:29.752Z,14.48
2023-03-12T03:23:56.928Z,14.38
2023-03-12T03:26:24.617Z,13.80
2023-03-12T03:28:52.719Z,14.07
2023-03-12T03:31:20.944Z,15.18
2023-03-12T03:33:48.306Z,13.82
2023-03-12T03:36:19.359Z,14.18
2023-03-12T03:38:55.388Z,14.65
2023-03-12T03:41:23.191Z,13.90
2023-03-12T03:43:50.262Z,15.60
2023-03-12T03:46:19.412Z,14.30
2023-03-12T03:48:52.522Z,14.05
2023-03-12T03:51:22.606Z,13.90
2023-03-12T03:53:54.404Z,14.43
2023-03-12T03:56:21.673Z,14.07
2023-03-12T03:58:50.423Z,15.88
2023-03-12T04:01:20.060Z,13.85
2023-03-12T04:03:48.282Z,13.85
2023-03-12T04:06:15.420Z,13.85
2023-03-12T04:08:43.210Z,14.05
2023-03-12T04:11:16.650Z,14.18
2023-03-12T04:13:45.208Z,13.40
2023-03-12T04:16:15.188Z,13.93
2023-03-12T04:18:43.051Z,13.75
2023-03-12T04:21:12.451Z,13.88
2023-03-12T04:23:41.264Z,15.13
2023-03-12T04:26:09.731Z,14.48
2023-03-12T04:28:37.677Z,14.05
2023-03-12T04:31:08.338Z,14.10
2023-03-12T04:33:40.847Z,13.50
2023-03-12T04:36:09.738Z,13.68
2023-03-12T04:38:40.012Z,13.85
2023-03-12T04:41:11.691Z,14.50
2023-03-12T04:43:44.841Z,14.27
2023-03-12T04:46:13.075Z,14.52
2023-03-12T04:48:42.664Z,14.10
2023-03-12T04:51:09.759Z,14.05
2023-03-12T04:53:36.977Z,14.68
2023-03-12T04:56:04.273Z,14.02
2023-03-12T04:58:32.625Z,13.73
2023-03-12T05:00:59.690Z,14.13
2023-03-12T05:03:26.574Z,13.93
2023-03-12T05:05:54.214Z,14.98
2023-03-12T05:08:21.175Z,14.18
2023-03-12T05:10:48.157Z,14.02
2023-03-12T05:13:19.704Z,14.00
2023-03-12T05:15:48.656Z,14.25
2023-03-12T05:18:15.643Z,14.75
2023-03-12T05:20:43.711Z,14.70
2023-03-12T05:23:11.003Z,14.50
2023-03-12T05:25:41.921Z,14.68
2023-03-12T05:28:09.488Z,14.88
2023-03-12T05:30:39.847Z,14.90
2023-03-12T05:33:07.144Z,15.07
2023-03-12T05:35:34.703Z,14.57
2023-03-12T05:38:01.713Z,15.15
2023-03-12T05:40:28.930Z,14.77
2023-03-12T05:42:55.912Z,14.93
2023-03-12T05:45:25.919Z,15.27
2023-03-12T05:47:55.773Z,15.05
2023-03-12T05:50:22.904Z,15.40
2023-03-12T05:52:49.833Z,15.05
2023-03-12T05:55:16.792Z,15.10
2023-03-12T05:57:44.283Z,14.35
2023-03-12T06:00:14.016Z,15.98
2023-03-12T06:02:44.396Z,14.48
2023-03-12T06:05:12.491Z,15.02
2023-03-12T06:07:40.412Z,14.48
2023-03-12T06:10:08.159Z,14.80
2023-03-12T06:12:35.049Z,14.48
2023-03-12T06:15:01.877Z,14.75
2023-03-12T06:17:32.048Z,14.70
2023-03-12T06:19:59.226Z,15.38
2023-03-12T06:22:26.821Z,14.30
2023-03-12T06:24:53.703Z,14.52
2023-03-12T06:27:21.091Z,14.88
2023-03-12T06:29:48.004Z,14.25
2023-03-12T06:32:15.326Z,14.20
2023-03-12T06:34:42.283Z,14.60
2023-03-12T06:37:09.170Z,14.85
2023-03-12T06:39:36.079Z,14.27
2023-03-12T06:42:02.908Z,14.60
2023-03-12T06:44:29.803Z,14.93
2023-03-12T06:46:57.028Z,14.30
2023-03-12T06:49:24.588Z,14.10
2023-03-12T06:51:51.449Z,14.95
2023-03-12T06:54:18.277Z,15.15
2023-03-12T06:56:46.087Z,15.65
2023-03-12T06:59:13.016Z,14.90
2023-03-12T07:01:39.797Z,15.77
2023-03-12T07:04:06.815Z,16.00
2023-03-12T07:06:33.696Z,15.38
2023-03-12T07:09:00.596Z,15.48
2023-03-12T07:11:27.444Z,17.60
2023-03-12T07:13:54.387Z,15.00
2023-03-12T07:16:21.287Z,15.50
2023-03-12T07:18:48.094Z,14.95
2023-03-12T07:21:22.706Z,16.08
2023-03-12T07:23:51.172Z,15.32
2023-03-12T07:40:13.114Z,18.02
2023-03-12T07:42:40.000Z,16.30
2023-03-12T07:45:08.186Z,19.27
2023-03-12T07:47:35.235Z,19.05
2023-03-12T07:50:02.818Z,17.30
2023-03-12T07:52:29.825Z,15.65
2023-03-12T07:54:57.584Z,16.92
2023-03-12T07:57:24.955Z,16.27
2023-03-12T07:59:52.458Z,15.90
2023-03-12T08:02:20.518Z,16.25
2023-03-12T08:04:47.647Z,16.48
2023-03-12T08:07:15.062Z,15.77
2023-03-12T08:09:42.195Z,15.52
2023-03-12T08:12:09.348Z,15.70
2023-03-12T08:14:36.592Z,17.33
2023-03-12T08:17:03.676Z,14.98
2023-03-12T08:19:31.075Z,15.70
2023-03-12T08:21:58.258Z,16.33
2023-03-12T08:24:25.428Z,16.77
2023-03-12T08:26:56.159Z,16.20
2023-03-12T08:29:23.085Z,17.20
2023-03-12T08:32:03.643Z,16.27
2023-03-12T08:34:31.237Z,15.88
2023-03-12T08:36:58.114Z,15.80
2023-03-12T08:39:25.019Z,16.65
2023-03-12T08:41:55.463Z,15.52
2023-03-12T08:44:23.710Z,16.33
2023-03-12T08:46:51.699Z,15.68
2023-03-12T08:49:19.561Z,16.33
2023-03-12T08:51:46.452Z,15.48
2023-03-12T08:54:13.382Z,15.57
2023-03-12T08:56:43.261Z,15.73
2023-03-12T08:59:11.997Z,17.27
2023-03-12T09:01:42.368Z,16.65
2023-03-12T09:04:10.720Z,18.33
2023-03-12T09:06:38.630Z,16.38
2023-03-12T09:09:05.962Z,16.08
2023-03-12T09:11:34.154Z,15.45
2023-03-12T09:14:39.503Z,15.13
2023-03-12T09:16:50.295Z,15.80
2023-03-12T09:19:17.212Z,15.40
2023-03-12T09:21:44.141Z,15.77
2023-03-12T09:24:11.644Z,15.50
2023-03-12T09:26:38.591Z,16.00
2023-03-12T09:29:05.645Z,16.48
2023-03-12T09:31:32.620Z,15.95
2023-03-12T09:33:59.487Z,14.98
2023-03-12T09:36:26.383Z,15.70
2023-03-12T09:38:54.063Z,15.82
2023-03-12T09:41:27.742Z,15.48
2023-03-12T09:44:02.491Z,16.73
2023-03-12T09:46:37.801Z,17.17
2023-03-12T09:49:12.011Z,16.45
2023-03-12T09:54:34.874Z,16.25
2023-03-12T09:57:09.259Z,16.27
2023-03-12T09:59:37.097Z,16.58
2023-03-12T10:02:21.529Z,15.90
2023-03-12T10:05:00.121Z,16.85
2023-03-12T10:07:43.520Z,16.83
2023-03-12T10:10:20.718Z,15.68
2023-03-12T10:13:07.500Z,16.98
2023-03-12T10:16:11.540Z,16.05
2023-03-12T10:18:48.513Z,16.17
2023-03-12T10:21:24.444Z,15.80
2023-03-12T10:24:17.247Z,16.13
2023-03-12T10:26:51.459Z,16.48
2023-03-12T10:29:40.261Z,16.30
2023-03-12T10:32:17.859Z,16.17
2023-03-12T10:34:53.003Z,15.80
2023-03-12T10:37:28.279Z,16.27
2023-03-12T10:39:56.345Z,16.85
2023-03-12T10:42:26.533Z,16.38
2023-03-12T10:44:58.780Z,19.52
2023-03-12T10:47:28.653Z,16.80
2023-03-12T10:50:11.059Z,17.80
2023-03-12T10:52:37.981Z,18.88
2023-03-12T10:55:23.699Z,18.08
2023-03-12T10:57:51.202Z,18.88
2023-03-12T11:00:22.875Z,17.25
2023-03-12T11:03:03.530Z,16.80
2023-03-12T11:05:36.473Z,16.65
2023-03-12T11:08:04.547Z,16.75
2023-03-12T11:10:47.991Z,16.90
2023-03-12T11:13:23.996Z,16.30
2023-03-12T11:15:52.869Z,17.85
2023-03-12T11:18:19.878Z,16.70
2023-03-12T11:20:47.859Z,17.20
2023-03-12T11:23:21.988Z,17.10
2023-03-12T11:25:54.305Z,16.67
2023-03-12T11:28:26.052Z,16.67
2023-03-12T11:30:54.197Z,16.92
2023-03-12T11:33:21.152Z,16.88
2023-03-12T11:35:57.293Z,16.48
2023-03-12T11:38:38.570Z,16.63
2023-03-12T11:41:53.414Z,16.58
2023-03-12T11:44:36.111Z,16.45
2023-03-12T11:47:37.007Z,16.48
2023-03-12T11:50:23.416Z,16.60
2023-03-12T11:53:21.130Z,17.05
2023-03-12T11:56:23.582Z,18.25
2023-03-12T11:58:56.549Z,17.92
2023-03-12T12:01:45.130Z,16.23
2023-03-12T12:04:36.453Z,16.45
2023-03-12T12:07:09.250Z,17.00
2023-03-12T12:09:41.039Z,16.73
2023-03-12T12:12:21.567Z,15.75
2023-03-12T12:14:57.369Z,16.30
2023-03-12T12:17:29.872Z,15.77
2023-03-12T12:20:16.190Z,16.45
2023-03-12T12:23:16.628Z,16.70
2023-03-12T12:26:25.659Z,17.38
2023-03-12T12:29:24.510Z,17.10
2023-03-12T12:31:59.913Z,18.25
2023-03-12T12:34:40.172Z,16.25
2023-03-12T12:37:21.229Z,16.70
2023-03-12T12:39:55.872Z,16.67
2023-03-12T12:42:30.207Z,16.52
2023-03-12T12:47:37.904Z,16.50
2023-03-12T12:50:05.219Z,15.43
2023-03-12T12:52:32.722Z,14.55
2023-03-12T12:54:59.702Z,14.20
2023-03-12T12:57:29.574Z,14.63
2023-03-12T13:00:11.158Z,15.00
2023-03-12T13:02:41.033Z,14.80
2023-03-12T13:05:22.568Z,14.57
2023-03-12T13:07:49.450Z,14.13
2023-03-12T13:10:34.718Z,14.07
2023-03-12T13:13:11.686Z,14.60
2023-03-12T13:15:43.664Z,13.77
2023-03-12T13:18:28.084Z,13.80
2023-03-12T13:20:54.907Z,15.05
2023-03-12T13:23:21.884Z,14.07
2023-03-12T13:26:07.127Z,13.80
2023-03-12T13:28:56.841Z,14.15
2023-03-12T13:31:29.663Z,14.18
2023-03-12T13:34:06.020Z,14.80
2023-03-12T13:36:38.453Z,14.88
2023-03-12T13:39:08.275Z,14.90
2023-03-12T13:41:49.959Z,14.68
2023-03-12T13:44:23.094Z,13.95
2023-03-12T13:47:02.573Z,14.57
2023-03-12T13:50:04.345Z,14.30
2023-03-12T13:52:34.112Z,13.95
2023-03-12T13:55:13.272Z,13.63
2023-03-12T13:57:50.848Z,14.60
2023-03-12T14:00:24.882Z,14.88
2023-03-12T14:03:27.063Z,14.63
2023-03-12T14:05:59.738Z,13.50
2023-03-12T14:08:53.985Z,13.90
2023-03-12T14:11:29.146Z,13.90
2023-03-12T14:14:28.225Z,14.02
2023-03-12T14:16:59.096Z,14.05
2023-03-12T14:19:29.242Z,13.57
2023-03-12T14:22:00.311Z,13.88
2023-03-12T14:24:32.774Z,14.57
2023-03-12T14:27:02.555Z,13.55
2023-03-12T14:29:43.676Z,14.00
2023-03-12T14:32:23.628Z,14.25
2023-03-12T14:35:14.118Z,14.25
2023-03-12T14:37:47.546Z,13.77
2023-03-12T14:40:22.995Z,13.75
2023-03-12T14:42:52.586Z,13.07
2023-03-12T14:45:24.124Z,14.02
2023-03-12T14:47:56.916Z,14.27
2023-03-12T14:50:25.711Z,14.32
2023-03-12T14:52:53.083Z,14.10
2023-03-12T14:55:26.152Z,15.48
2023-03-12T14:58:25.961Z,14.55
2023-03-12T15:00:58.445Z,14.25
2023-03-12T15:03:27.423Z,14.32
2023-03-12T15:05:55.110Z,14.15
2023-03-12T15:08:22.528Z,13.65
2023-03-12T15:10:54.267Z,14.00
2023-03-12T15:13:23.405Z,14.75
2023-03-12T15:15:54.456Z,13.50
2023-03-12T15:18:30.661Z,13.82
2023-03-12T15:20:59.692Z,14.23
2023-03-12T15:23:29.931Z,15.10
2023-03-12T15:26:20.069Z,13.60
2023-03-12T15:29:03.906Z,17.05
2023-03-12T15:31:48.238Z,14.07
2023-03-12T15:34:34.209Z,12.82
2023-03-12T15:37:04.637Z,13.75
2023-03-12T15:39:38.140Z,12.90
2023-03-12T15:42:11.487Z,13.20
2023-03-12T15:44:44.286Z,15.15
2023-03-12T15:47:32.904Z,15.25
2023-03-12T15:50:22.077Z,14.25
2023-03-12T15:53:03.132Z,13.05
2023-03-12T15:55:31.958Z,13.63
2023-03-12T15:58:00.219Z,13.20
2023-03-12T16:00:41.126Z,14.90
2023-03-12T16:03:16.546Z,14.10
2023-03-12T16:05:43.850Z,14.32
2023-03-12T16:08:20.904Z,13.40
2023-03-12T16:10:50.270Z,12.82
2023-03-12T16:13:23.962Z,13.98
2023-03-12T16:15:52.199Z,14.15
2023-03-12T16:18:21.209Z,15.45
2023-03-12T16:20:50.607Z,14.93
2023-03-12T16:23:19.343Z,14.23
2023-03-12T16:25:51.582Z,13.68
2023-03-12T16:28:20.360Z,13.45
2023-03-12T16:30:47.330Z,13.50
2023-03-12T16:33:19.314Z,13.05
2023-03-12T16:35:46.437Z,13.27
2023-03-12T16:38:13.656Z,13.95
2023-03-12T16:40:49.166Z,15.52
2023-03-12T16:43:23.283Z,13.40
2023-03-12T16:45:52.612Z,14.57
2023-03-12T16:48:24.248Z,14.25
2023-03-12T16:50:53.963Z,13.80
2023-03-12T16:53:21.159Z,16.17
2023-03-12T16:55:54.044Z,14.25
2023-03-12T16:58:22.983Z,15.50
2023-03-12T17:00:51.506Z,15.07
2023-03-12T17:03:28.616Z,14.48
2023-03-12T17:05:55.571Z,14.20
2023-03-12T17:08:22.457Z,19.38
2023-03-12T17:10:49.512Z,15.13
2023-03-12T17:13:25.702Z,13.25
2023-03-12T17:15:53.369Z,13.55
2023-03-12T17:18:21.319Z,16.55
2023-03-12T17:20:49.478Z,15.93
2023-03-12T17:23:16.440Z,18.02
2023-03-12T17:25:44.665Z,12.90
2023-03-12T17:28:12.660Z,13.02
2023-03-12T17:30:39.605Z,13.27
2023-03-12T17:33:10.874Z,14.13
2023-03-12T17:35:38.333Z,13.73
2023-03-12T17:38:06.132Z,13.48
2023-03-12T17:40:33.970Z,12.95
2023-03-12T17:43:00.835Z,13.77
2023-03-12T17:45:27.787Z,13.68
2023-03-12T17:47:54.811Z,14.02
2023-03-12T17:50:21.705Z,13.90
2023-03-12T17:52:48.663Z,14.55
2023-03-12T17:55:15.632Z,12.98
2023-03-12T17:57:44.788Z,13.20
2023-03-12T18:00:13.146Z,14.15
2023-03-12T18:02:41.611Z,14.10
2023-03-12T18:05:10.478Z,14.20
2023-03-12T18:07:37.608Z,17.48
2023-03-12T18:10:07.882Z,13.65
2023-03-12T18:12:35.254Z,14.63
2023-03-12T18:15:02.120Z,13.38
2023-03-12T18:17:28.944Z,12.75
2023-03-12T18:19:55.855Z,12.93
2023-03-12T18:22:24.544Z,13.27
2023-03-12T18:24:51.591Z,14.20
2023-03-12T18:27:18.537Z,12.57
2023-03-12T18:29:45.409Z,13.40
2023-03-12T18:32:12.255Z,13.82
2023-03-12T18:34:42.296Z,15.43
2023-03-12T18:37:09.394Z,15.77
2023-03-12T18:39:36.338Z,15.43
2023-03-12T18:42:03.395Z,16.33
2023-03-12T18:44:30.297Z,14.48
2023-03-12T18:46:57.259Z,25.05
2023-03-12T18:49:24.213Z,16.98
2023-03-12T18:51:56.017Z,19.20
2023-03-12T18:54:24.797Z,16.27
2023-03-12T18:56:51.893Z,15.05
2023-03-12T18:59:18.774Z,17.90
2023-03-12T19:01:45.766Z,17.63
2023-03-12T19:04:17.066Z,15.63
2023-03-12T19:06:51.289Z,14.60
2023-03-12T19:09:19.260Z,15.30
2023-03-12T19:11:49.610Z,15.60
2023-03-12T19:14:16.921Z,15.98
2023-03-12T19:16:43.872Z,15.02
2023-03-12T19:19:10.786Z,15.23
2023-03-12T19:21:37.688Z,15.45
2023-03-12T19:24:04.840Z,15.30
2023-03-12T19:41:53.927Z,15.38
2023-03-12T19:44:20.746Z,16.02
2023-03-12T19:46:47.696Z,15.55
2023-03-12T19:49:14.925Z,16.23
2023-03-12T19:51:42.006Z,15.93
2023-03-12T19:54:08.866Z,17.50
2023-03-12T19:56:35.735Z,17.55
2023-03-12T19:59:02.658Z,17.25
2023-03-12T20:01:29.458Z,17.65
2023-03-12T20:03:56.340Z,16.13
2023-03-12T20:06:23.277Z,16.05
2023-03-12T20:08:50.182Z,16.13
2023-03-12T20:11:17.145Z,17.02
2023-03-12T20:13:44.023Z,18.30
2023-03-12T20:16:13.259Z,18.95
2023-03-12T20:18:40.160Z,17.95
2023-03-12T20:21:07.077Z,17.58
2023-03-12T20:23:34.120Z,15.65
2023-03-12T20:26:00.946Z,14.73
2023-03-12T20:28:28.110Z,17.10
2023-03-12T20:30:55.431Z,15.07
2023-03-12T20:33:22.503Z,17.13
2023-03-12T20:35:50.525Z,15.63
2023-03-12T20:38:17.544Z,16.02
2023-03-12T20:40:46.209Z,15.20
2023-03-12T20:43:13.093Z,15.98
2023-03-12T20:45:39.946Z,16.85
2023-03-12T20:48:06.904Z,15.93
2023-03-12T20:50:39.396Z,17.05
2023-03-12T20:53:06.975Z,17.85
2023-03-12T20:55:33.876Z,16.52
2023-03-12T20:58:00.697Z,15.45
2023-03-12T21:00:27.542Z,16.33
2023-03-12T21:02:54.367Z,14.60
2023-03-12T21:05:23.924Z,14.55
2023-03-12T21:07:53.822Z,12.65
2023-03-12T21:10:21.302Z,12.02
2023-03-12T21:12:48.128Z,11.90
2023-03-12T21:15:15.132Z,12.68
2023-03-12T21:17:42.001Z,12.80
2023-03-12T21:20:13.174Z,12.90
2023-03-12T21:22:41.522Z,12.30
2023-03-12T21:25:08.737Z,12.82
2023-03-12T21:27:44.695Z,12.15
2023-03-12T21:30:17.265Z,11.55
2023-03-12T21:32:44.255Z,11.65
2023-03-12T21:35:11.438Z,13.20
2023-03-12T21:37:38.393Z,12.30
2023-03-12T21:40:05.788Z,13.25
2023-03-12T21:42:33.735Z,12.40
2023-03-12T21:45:00.594Z,12.30
2023-03-12T21:47:27.426Z,13.07
2023-03-12T21:49:54.278Z,14.25
2023-03-12T21:52:21.135Z,13.98
2023-03-12T21:54:48.105Z,14.32
2023-03-12T21:57:15.068Z,14.50
2023-03-12T21:59:41.996Z,14.52
2023-03-12T22:02:14.896Z,14.27
2023-03-12T22:04:42.187Z,14.20
2023-03-12T22:07:09.147Z,14.02
2023-03-12T22:09:36.092Z,14.00
2023-03-12T22:12:03.550Z,13.77
2023-03-12T22:14:30.421Z,13.23
2023-03-12T22:16:57.451Z,13.48
2023-03-12T22:19:24.574Z,14.57
2023-03-12T22:21:51.402Z,14.15
2023-03-12T22:24:18.329Z,13.68
2023-03-12T22:26:46.212Z,13.32
2023-03-12T22:29:13.215Z,14.00
2023-03-12T22:31:40.124Z,14.13
2023-03-12T22:34:07.025Z,14.50
2023-03-12T22:36:33.999Z,15.00
2023-03-12T22:39:00.925Z,14.15
2023-03-12T22:41:29.598Z,13.68
2023-03-12T22:44:01.109Z,12.77
2023-03-12T22:46:29.137Z,11.85
2023-03-12T22:48:59.289Z,11.98
2023-03-12T22:51:27.544Z,12.57
2023-03-12T22:53:54.542Z,14.10
2023-03-12T22:56:21.502Z,12.38
2023-03-12T22:58:49.055Z,12.20
2023-03-12T23:01:19.120Z,12.00
2023-03-12T23:03:49.879Z,12.23
2023-03-12T23:06:20.540Z,11.85
2023-03-12T23:08:48.098Z,12.20
2023-03-12T23:11:16.397Z,12.00
2023-03-12T23:13:44.977Z,12.43
2023-03-12T23:16:17.449Z,12.63
2023-03-12T23:18:47.763Z,11.57
2023-03-12T23:21:22.577Z,11.38
2023-03-12T23:23:50.211Z,11.73
2023-03-12T23:26:21.876Z,12.27
2023-03-12T23:28:51.623Z,11.30
2023-03-12T23:31:19.719Z,11.35
2023-03-12T23:33:48.330Z,11.60
2023-03-12T23:36:19.111Z,16.42
2023-03-12T23:38:47.409Z,18.35
2023-03-12T23:41:20.807Z,22.88
2023-03-12T23:43:48.359Z,19.10
2023-03-12T23:46:17.281Z,16.50
2023-03-12T23:48:48.237Z,13.93
2023-03-12T23:51:17.648Z,13.07
2023-03-12T23:53:47.358Z,12.02
2023-03-12T23:56:17.364Z,12.38
2023-03-12T23:58:47.655Z,11.98
